createdAt,value
2017-11-15T00:01:16.480Z,50.30
2017-11-15T00:03:44.064Z,49.30
2017-11-15T00:06:11.614Z,53.08
2017-11-15T00:08:39.212Z,47.50
2017-11-15T00:11:06.798Z,52.40
2017-11-15T00:13:34.406Z,51.92
2017-11-15T00:16:01.964Z,61.58
2017-11-15T00:18:29.534Z,52.42
2017-11-15T00:20:57.145Z,54.88
2017-11-15T00:23:25.478Z,53.70
2017-11-15T00:25:53.103Z,51.75
2017-11-15T00:28:21.423Z,45.55
2017-11-15T00:30:48.982Z,47.33
2017-11-15T00:33:16.578Z,54.35
2017-11-15T00:35:44.149Z,49.08
2017-11-15T00:38:12.512Z,43.92
2017-11-15T00:40:40.103Z,51.70
2017-11-15T00:43:08.418Z,51.40
2017-11-15T00:45:36.027Z,55.22
2017-11-15T00:48:04.367Z,43.72
2017-11-15T00:50:31.971Z,42.62
2017-11-15T00:53:00.293Z,41.08
2017-11-15T00:55:27.852Z,46.35
2017-11-15T00:57:55.456Z,48.80
2017-11-15T01:00:23.050Z,44.78
2017-11-15T01:02:50.627Z,52.38
2017-11-15T01:05:18.235Z,42.60
2017-11-15T01:07:45.786Z,41.35
2017-11-15T01:10:13.395Z,45.10
2017-11-15T01:12:40.958Z,43.80
2017-11-15T01:15:08.521Z,54.33
2017-11-15T01:17:36.123Z,44.75
2017-11-15T01:20:03.671Z,39.17
2017-11-15T01:22:31.231Z,55.30
2017-11-15T01:24:59.587Z,46.58
2017-11-15T01:27:27.168Z,46.75
2017-11-15T01:29:54.761Z,43.83
2017-11-15T01:32:22.327Z,67.00
2017-11-15T01:34:49.914Z,36.47
2017-11-15T01:37:18.228Z,41.42
2017-11-15T01:39:45.821Z,32.10
2017-11-15T01:42:13.382Z,38.53
2017-11-15T01:44:40.972Z,39.03
2017-11-15T01:47:08.534Z,39.38
2017-11-15T01:49:36.903Z,36.70
2017-11-15T01:52:05.223Z,37.58
2017-11-15T01:54:32.818Z,42.85
2017-11-15T01:57:00.374Z,38.95
2017-11-15T01:59:27.969Z,40.08
2017-11-15T02:01:56.338Z,34.20
2017-11-15T02:04:24.673Z,44.50
2017-11-15T02:06:52.290Z,35.45
2017-11-15T02:09:19.906Z,38.92
2017-11-15T02:11:47.681Z,43.30
2017-11-15T02:14:16.027Z,39.97
2017-11-15T02:16:43.638Z,43.17
2017-11-15T02:19:11.975Z,43.65
2017-11-15T02:21:39.579Z,38.97
2017-11-15T02:24:07.910Z,46.13
2017-11-15T02:26:35.481Z,45.42
2017-11-15T02:29:03.103Z,55.53
2017-11-15T02:31:30.653Z,37.45
2017-11-15T02:33:59.038Z,45.53
2017-11-15T02:36:26.592Z,45.90
2017-11-15T02:38:54.906Z,45.05
2017-11-15T02:41:22.522Z,44.88
2017-11-15T02:43:50.914Z,46.60
2017-11-15T02:46:18.479Z,48.47
2017-11-15T02:48:46.093Z,47.75
2017-11-15T02:51:13.711Z,47.92
2017-11-15T02:53:41.270Z,45.22
2017-11-15T02:56:08.859Z,44.03
2017-11-15T02:58:36.423Z,38.42
2017-11-15T03:01:04.039Z,43.05
2017-11-15T03:03:31.642Z,38.83
2017-11-15T03:05:59.199Z,42.72
2017-11-15T03:08:26.756Z,43.53
2017-11-15T03:10:54.355Z,43.55
2017-11-15T03:13:21.917Z,38.58
2017-11-15T03:15:49.506Z,37.95
2017-11-15T03:18:17.103Z,41.05
2017-11-15T03:20:44.727Z,38.15
2017-11-15T03:23:12.337Z,40.70
2017-11-15T03:25:39.907Z,39.03
2017-11-15T03:28:07.606Z,38.90
2017-11-15T03:30:35.945Z,44.10
2017-11-15T03:33:03.499Z,43.92
2017-11-15T03:35:31.104Z,46.50
2017-11-15T03:37:59.423Z,48.25
2017-11-15T03:40:26.984Z,46.33
2017-11-15T03:42:54.591Z,48.53
2017-11-15T03:45:22.142Z,48.65
2017-11-15T03:47:49.689Z,63.53
2017-11-15T03:50:17.282Z,63.45
2017-11-15T03:52:45.613Z,70.20
2017-11-15T03:55:13.219Z,65.87
2017-11-15T03:57:41.550Z,71.03
2017-11-15T04:00:09.156Z,77.78
2017-11-15T04:02:39.412Z,70.07
2017-11-15T04:05:06.968Z,84.15
2017-11-15T04:07:34.599Z,62.03
2017-11-15T04:10:02.934Z,72.03
2017-11-15T04:12:30.498Z,67.80
2017-11-15T04:14:58.102Z,76.85
2017-11-15T04:17:26.457Z,60.33
2017-11-15T04:19:54.058Z,68.93
2017-11-15T04:22:22.384Z,62.40
2017-11-15T04:24:49.996Z,72.22
2017-11-15T04:27:17.554Z,75.55
2017-11-15T04:29:45.923Z,65.43
2017-11-15T04:32:14.286Z,81.53
2017-11-15T04:34:41.859Z,106.18
2017-11-15T04:37:10.215Z,71.57
2017-11-15T04:39:37.817Z,56.42
2017-11-15T04:42:05.398Z,68.28
2017-11-15T04:44:33.004Z,77.80
2017-11-15T04:47:00.594Z,64.62
2017-11-15T04:49:28.918Z,83.65
2017-11-15T04:51:56.534Z,51.97
2017-11-15T04:54:24.855Z,65.18
2017-11-15T04:56:52.443Z,70.93
2017-11-15T04:59:20.003Z,68.53
2017-11-15T05:01:47.601Z,62.20
2017-11-15T05:04:15.162Z,61.65
2017-11-15T05:06:42.727Z,68.60
2017-11-15T05:09:10.323Z,46.60
2017-11-15T05:11:37.928Z,67.00
2017-11-15T05:14:06.249Z,54.58
2017-11-15T05:16:33.810Z,51.10
2017-11-15T05:19:01.424Z,49.70
2017-11-15T05:21:29.753Z,57.47
2017-11-15T05:23:57.339Z,51.92
2017-11-15T05:26:24.939Z,62.92
2017-11-15T05:28:52.510Z,52.90
2017-11-15T05:31:20.079Z,57.05
2017-11-15T05:33:47.680Z,49.25
2017-11-15T05:36:15.275Z,54.20
2017-11-15T05:38:43.649Z,58.87
2017-11-15T05:41:11.991Z,47.17
2017-11-15T05:43:39.580Z,53.95
2017-11-15T05:46:07.948Z,63.58
2017-11-15T05:48:35.554Z,55.63
2017-11-15T05:51:03.117Z,48.58
2017-11-15T05:53:30.675Z,57.90
2017-11-15T05:55:58.275Z,54.47
2017-11-15T05:58:25.829Z,55.92
2017-11-15T06:00:53.439Z,61.37
2017-11-15T06:03:21.770Z,57.20
2017-11-15T06:05:49.323Z,50.25
2017-11-15T06:08:16.916Z,57.72
2017-11-15T06:10:45.380Z,58.67
2017-11-15T06:13:12.882Z,58.75
2017-11-15T06:15:40.599Z,79.07
2017-11-15T06:18:08.926Z,54.88
2017-11-15T06:20:36.546Z,49.45
2017-11-15T06:23:04.856Z,68.35
2017-11-15T06:25:33.279Z,49.00
2017-11-15T06:28:00.905Z,59.20
2017-11-15T06:30:28.488Z,42.17
2017-11-15T06:32:56.914Z,47.38
2017-11-15T06:35:25.225Z,38.85
2017-11-15T06:37:52.872Z,35.90
2017-11-15T06:40:20.379Z,36.35
2017-11-15T06:42:47.937Z,34.60
2017-11-15T06:45:15.556Z,42.50
2017-11-15T06:47:43.942Z,60.45
2017-11-15T06:50:12.287Z,45.55
2017-11-15T06:52:39.846Z,41.92
2017-11-15T06:55:07.442Z,61.75
2017-11-15T06:57:35.794Z,44.75
2017-11-15T07:00:03.389Z,52.25
2017-11-15T07:02:31.715Z,47.30
2017-11-15T07:04:59.328Z,40.22
2017-11-15T07:07:27.657Z,45.15
2017-11-15T07:09:55.281Z,39.45
2017-11-15T07:12:22.845Z,43.75
2017-11-15T07:14:50.414Z,41.10
2017-11-15T07:17:18.011Z,53.58
2017-11-15T07:19:45.614Z,41.20
2017-11-15T07:22:13.185Z,40.30
2017-11-15T07:24:40.806Z,59.83
2017-11-15T07:27:08.490Z,42.10
2017-11-15T07:29:36.851Z,58.53
2017-11-15T07:32:05.185Z,42.83
2017-11-15T07:34:32.783Z,54.20
2017-11-15T07:37:00.343Z,36.00
2017-11-15T07:39:27.910Z,40.05
2017-11-15T07:41:56.302Z,44.40
2017-11-15T07:44:24.900Z,34.95
2017-11-15T07:46:53.423Z,42.75
2017-11-15T07:49:21.002Z,41.63
2017-11-15T07:51:49.565Z,36.00
2017-11-15T07:54:17.432Z,33.85
2017-11-15T07:56:45.329Z,34.10
2017-11-15T07:59:13.415Z,29.40
2017-11-15T08:01:41.419Z,34.53
2017-11-15T08:04:09.610Z,33.80
2017-11-15T08:06:37.789Z,35.45
2017-11-15T08:09:06.409Z,46.70
2017-11-15T08:11:36.286Z,35.13
2017-11-15T08:14:06.298Z,30.60
2017-11-15T08:16:42.097Z,26.85
2017-11-15T08:19:13.204Z,30.73
2017-11-15T08:21:43.578Z,25.60
2017-11-15T08:24:12.840Z,25.62
2017-11-15T08:26:42.650Z,28.52
2017-11-15T08:29:12.493Z,32.95
2017-11-15T08:31:41.637Z,29.92
2017-11-15T08:34:09.794Z,27.80
2017-11-15T08:36:38.007Z,31.25
2017-11-15T08:39:07.053Z,29.48
2017-11-15T08:41:39.163Z,25.92
2017-11-15T08:44:08.019Z,31.98
2017-11-15T08:46:38.449Z,38.35
2017-11-15T08:49:07.185Z,30.52
2017-11-15T08:51:36.104Z,36.38
2017-11-15T08:54:04.766Z,40.17
2017-11-15T08:56:45.266Z,35.25
2017-11-15T08:59:23.940Z,31.35
2017-11-15T09:01:54.017Z,38.15
2017-11-15T09:04:22.299Z,35.08
2017-11-15T09:06:50.261Z,37.30
2017-11-15T09:09:18.282Z,39.13
2017-11-15T09:11:46.928Z,35.00
2017-11-15T09:14:14.728Z,37.35
2017-11-15T09:16:42.521Z,36.88
2017-11-15T09:19:11.311Z,31.45
2017-11-15T09:21:39.275Z,32.60
2017-11-15T09:24:07.184Z,39.17
2017-11-15T09:26:34.990Z,33.50
2017-11-15T09:29:19.426Z,33.72
2017-11-15T09:31:47.485Z,30.00
2017-11-15T09:34:20.849Z,33.92
2017-11-15T09:37:12.817Z,35.28
2017-11-15T09:39:52.767Z,35.78
2017-11-15T09:42:24.768Z,29.10
2017-11-15T09:44:55.903Z,39.05
2017-11-15T09:47:38.018Z,34.63
2017-11-15T09:50:12.275Z,36.30
2017-11-15T09:52:45.889Z,36.17
2017-11-15T09:55:13.944Z,37.08
2017-11-15T09:57:46.221Z,30.58
2017-11-15T10:00:19.800Z,36.25
2017-11-15T10:03:03.657Z,36.25
2017-11-15T10:05:31.395Z,52.38
2017-11-15T10:07:59.049Z,32.17
2017-11-15T10:10:26.965Z,37.22
2017-11-15T10:13:01.803Z,41.20
2017-11-15T10:15:30.536Z,32.05
2017-11-15T10:17:58.447Z,56.72
2017-11-15T10:20:26.103Z,44.30
2017-11-15T10:22:54.449Z,37.67
2017-11-15T10:25:22.074Z,42.97
2017-11-15T10:27:49.669Z,43.25
2017-11-15T10:30:17.320Z,42.70
2017-11-15T10:32:45.386Z,44.28
2017-11-15T10:35:13.330Z,46.80
2017-11-15T10:37:41.179Z,37.50
2017-11-15T10:40:09.042Z,41.37
2017-11-15T10:42:36.795Z,47.10
2017-11-15T10:45:09.290Z,42.53
2017-11-15T10:47:38.713Z,46.33
2017-11-15T10:50:06.709Z,50.72
2017-11-15T10:52:34.773Z,53.10
2017-11-15T10:55:04.781Z,46.70
2017-11-15T10:57:33.283Z,45.53
2017-11-15T11:00:01.286Z,47.50
2017-11-15T11:02:28.988Z,47.03
2017-11-15T11:05:08.470Z,42.17
2017-11-15T11:07:36.112Z,40.78
2017-11-15T11:10:03.865Z,50.92
2017-11-15T11:12:36.694Z,44.50
2017-11-15T11:15:04.319Z,40.88
2017-11-15T11:17:31.982Z,43.03
2017-11-15T11:20:06.003Z,39.88
2017-11-15T11:22:34.930Z,41.37
2017-11-15T11:25:02.542Z,46.53
2017-11-15T11:27:30.330Z,40.58
2017-11-15T11:29:57.909Z,42.80
2017-11-15T11:32:25.488Z,40.88
2017-11-15T11:35:01.529Z,47.42
2017-11-15T11:37:29.884Z,38.72
2017-11-15T11:39:57.469Z,45.30
2017-11-15T11:42:27.027Z,37.70
2017-11-15T11:44:54.602Z,41.10
2017-11-15T11:47:22.239Z,48.42
2017-11-15T11:49:49.978Z,41.28
2017-11-15T11:52:18.343Z,37.33
2017-11-15T11:54:45.963Z,39.83
2017-11-15T11:57:13.592Z,30.17
2017-11-15T11:59:44.092Z,29.83
2017-11-15T12:02:12.622Z,30.25
2017-11-15T12:04:40.379Z,26.60
2017-11-15T12:07:08.223Z,28.58
2017-11-15T12:09:36.919Z,27.98
2017-11-15T12:12:14.322Z,29.83
2017-11-15T12:14:42.158Z,24.50
2017-11-15T12:17:11.056Z,26.83
2017-11-15T12:19:38.778Z,26.83
2017-11-15T12:22:06.655Z,29.87
2017-11-15T12:24:34.325Z,28.62
2017-11-15T12:27:01.936Z,27.92
2017-11-15T12:29:29.627Z,34.03
2017-11-15T12:31:57.319Z,32.28
2017-11-15T12:37:46.315Z,31.58
2017-11-15T12:40:13.887Z,32.22
2017-11-15T12:42:42.257Z,45.55
2017-11-15T12:45:09.887Z,41.50
2017-11-15T12:47:37.464Z,35.25
2017-11-15T12:50:09.998Z,37.33
2017-11-15T12:52:37.620Z,35.65
2017-11-15T12:55:05.295Z,44.63
2017-11-15T12:57:33.763Z,43.95
2017-11-15T13:00:02.147Z,37.97
2017-11-15T13:02:35.387Z,36.00
2017-11-15T13:05:13.466Z,39.72
2017-11-15T13:07:48.524Z,40.20
2017-11-15T13:10:22.175Z,37.38
2017-11-15T13:12:56.096Z,37.40
2017-11-15T13:15:24.108Z,42.42
2017-11-15T13:17:51.993Z,31.45
2017-11-15T13:20:19.775Z,35.70
2017-11-15T13:22:47.846Z,50.58
2017-11-15T13:25:16.597Z,32.03
2017-11-15T13:27:44.389Z,38.88
2017-11-15T13:30:12.410Z,33.60
2017-11-15T13:32:40.090Z,32.20
2017-11-15T13:35:08.526Z,34.10
2017-11-15T13:37:36.865Z,29.87
2017-11-15T13:40:04.958Z,34.08
2017-11-15T13:42:33.085Z,38.13
2017-11-15T13:45:02.396Z,32.10
2017-11-15T13:47:30.751Z,28.30
2017-11-15T13:49:58.525Z,28.08
2017-11-15T13:52:26.302Z,32.33
2017-11-15T13:54:54.025Z,29.70
2017-11-15T13:57:21.705Z,34.38
2017-11-15T13:59:49.948Z,34.17
2017-11-15T14:02:20.594Z,36.97
2017-11-15T14:04:49.331Z,43.38
2017-11-15T14:07:19.402Z,37.38
2017-11-15T14:09:49.425Z,40.30
2017-11-15T14:12:18.191Z,36.30
2017-11-15T14:14:45.775Z,35.80
2017-11-15T14:17:14.706Z,32.53
2017-11-15T14:19:43.750Z,40.33
2017-11-15T14:22:13.425Z,35.03
2017-11-15T14:24:42.363Z,39.22
2017-11-15T14:27:11.144Z,48.83
2017-11-15T14:29:40.489Z,40.05
2017-11-15T14:32:08.786Z,38.15
2017-11-15T14:34:57.577Z,39.85
2017-11-15T14:37:54.776Z,40.47
2017-11-15T14:40:24.474Z,34.38
2017-11-15T14:42:52.579Z,39.03
2017-11-15T14:45:20.597Z,40.50
2017-11-15T14:47:49.188Z,46.88
2017-11-15T14:50:17.293Z,47.38
2017-11-15T14:52:45.868Z,50.08
2017-11-15T14:55:14.798Z,41.30
2017-11-15T14:57:43.792Z,44.40
2017-11-15T15:00:11.889Z,46.53
2017-11-15T15:02:40.302Z,48.65
2017-11-15T15:05:14.161Z,46.97
2017-11-15T15:07:45.116Z,46.45
2017-11-15T15:10:26.934Z,40.00
2017-11-15T15:13:00.205Z,47.65
2017-11-15T15:15:27.848Z,47.83
2017-11-15T15:17:55.398Z,41.33
2017-11-15T15:20:24.237Z,41.72
2017-11-15T15:22:52.603Z,37.20
2017-11-15T15:25:20.502Z,49.72
2017-11-15T15:27:48.870Z,58.28
2017-11-15T15:30:17.334Z,50.88
2017-11-15T15:32:44.934Z,51.13
2017-11-15T15:35:12.706Z,51.63
2017-11-15T15:37:40.290Z,43.65
2017-11-15T15:40:09.184Z,45.85
2017-11-15T15:42:48.774Z,41.17
2017-11-15T15:45:19.366Z,51.08
2017-11-15T15:47:46.999Z,46.15
2017-11-15T15:50:14.658Z,74.75
2017-11-15T15:52:42.270Z,49.97
2017-11-15T15:55:10.056Z,49.00
2017-11-15T15:57:37.642Z,48.67
2017-11-15T16:00:05.419Z,41.83
2017-11-15T16:02:33.463Z,49.65
2017-11-15T16:05:01.817Z,53.22
2017-11-15T16:07:29.409Z,38.35
2017-11-15T16:09:57.833Z,42.28
2017-11-15T16:12:25.390Z,46.58
2017-11-15T16:14:53.152Z,37.53
2017-11-15T16:17:20.715Z,51.28
2017-11-15T16:19:48.332Z,35.95
2017-11-15T16:22:16.702Z,49.42
2017-11-15T16:24:44.358Z,39.85
2017-11-15T16:27:11.952Z,45.30
2017-11-15T16:29:39.638Z,66.60
2017-11-15T16:32:07.280Z,46.40
2017-11-15T16:34:34.863Z,35.90
2017-11-15T16:37:02.506Z,42.47
2017-11-15T16:39:30.214Z,37.80
2017-11-15T16:41:57.809Z,47.62
2017-11-15T16:44:26.551Z,40.67
2017-11-15T16:46:54.135Z,48.90
2017-11-15T16:49:21.698Z,42.40
2017-11-15T16:51:49.339Z,37.42
2017-11-15T16:54:16.917Z,43.20
2017-11-15T16:56:45.076Z,42.60
2017-11-15T16:59:13.067Z,36.78
2017-11-15T17:01:42.321Z,45.47
2017-11-15T17:04:14.039Z,39.95
2017-11-15T17:06:49.198Z,47.88
2017-11-15T17:09:19.100Z,35.20
2017-11-15T17:11:52.454Z,39.70
2017-11-15T17:14:23.227Z,37.40
2017-11-15T17:16:57.357Z,41.22
2017-11-15T17:19:28.045Z,39.33
2017-11-15T17:21:58.388Z,40.83
2017-11-15T17:24:28.668Z,37.80
2017-11-15T17:26:58.783Z,42.13
2017-11-15T17:29:28.391Z,43.10
2017-11-15T17:31:58.087Z,49.10
2017-11-15T17:34:29.097Z,35.97
2017-11-15T17:36:58.679Z,45.60
2017-11-15T17:39:28.298Z,41.88
2017-11-15T17:41:57.179Z,47.85
2017-11-15T17:44:26.262Z,39.22
2017-11-15T17:46:57.563Z,44.33
2017-11-15T17:49:28.503Z,40.97
2017-11-15T17:51:56.968Z,49.20
2017-11-15T17:54:26.935Z,45.12
2017-11-15T17:56:56.543Z,45.53
2017-11-15T17:59:25.712Z,45.72
2017-11-15T18:01:59.151Z,59.08
2017-11-15T18:04:28.767Z,48.38
2017-11-15T18:06:58.455Z,42.25
2017-11-15T18:09:27.454Z,43.13
2017-11-15T18:11:56.843Z,46.25
2017-11-15T18:14:26.754Z,48.00
2017-11-15T18:17:00.261Z,35.92
2017-11-15T18:19:31.423Z,40.38
2017-11-15T18:22:00.417Z,42.40
2017-11-15T18:24:30.875Z,38.70
2017-11-15T18:27:01.006Z,41.28
2017-11-15T18:29:30.589Z,43.13
2017-11-15T18:31:59.355Z,38.80
2017-11-15T18:34:27.711Z,34.28
2017-11-15T18:36:58.188Z,39.72
2017-11-15T18:39:27.793Z,41.05
2017-11-15T18:41:57.287Z,34.17
2017-11-15T18:44:26.870Z,32.40
2017-11-15T18:46:56.435Z,31.58
2017-11-15T18:49:25.851Z,39.35
2017-11-15T18:51:56.271Z,41.40
2017-11-15T18:54:25.269Z,35.65
2017-11-15T18:56:55.907Z,36.10
2017-11-15T18:59:26.028Z,40.25
2017-11-15T19:01:56.372Z,36.22
2017-11-15T19:04:25.017Z,40.53
2017-11-15T19:06:53.246Z,35.35
2017-11-15T19:09:21.436Z,30.02
2017-11-15T19:11:51.740Z,40.85
2017-11-15T19:14:20.073Z,42.90
2017-11-15T19:16:48.997Z,42.58
2017-11-15T19:19:18.518Z,41.85
2017-11-15T19:21:47.022Z,45.03
2017-11-15T19:24:14.638Z,42.85
2017-11-15T19:26:42.911Z,44.42
2017-11-15T19:29:10.545Z,38.42
2017-11-15T19:31:38.101Z,36.42
2017-11-15T19:34:05.751Z,45.33
2017-11-15T19:36:33.359Z,54.05
2017-11-15T19:39:01.858Z,41.03
2017-11-15T19:41:29.816Z,48.78
2017-11-15T19:43:57.443Z,42.75
2017-11-15T19:46:26.367Z,44.13
2017-11-15T19:48:54.485Z,44.33
2017-11-15T19:51:22.411Z,44.00
2017-11-15T19:53:50.187Z,51.65
2017-11-15T19:56:17.834Z,36.33
2017-11-15T19:58:45.420Z,34.78
2017-11-15T20:01:13.059Z,49.63
2017-11-15T20:03:41.393Z,47.28
2017-11-15T20:06:08.943Z,42.45
2017-11-15T20:08:36.540Z,37.38
2017-11-15T20:11:04.109Z,38.08
2017-11-15T20:13:31.721Z,36.85
2017-11-15T20:15:59.342Z,38.42
2017-11-15T20:18:26.939Z,33.35
2017-11-15T20:20:54.503Z,43.72
2017-11-15T20:23:22.136Z,36.92
2017-11-15T20:25:49.847Z,39.97
2017-11-15T20:28:17.447Z,38.85
2017-11-15T20:30:45.955Z,41.63
2017-11-15T20:33:13.520Z,41.28
2017-11-15T20:35:41.124Z,41.47
2017-11-15T20:38:08.686Z,44.25
2017-11-15T20:40:36.290Z,41.17
2017-11-15T20:43:03.875Z,36.70
2017-11-15T20:45:31.491Z,47.47
2017-11-15T20:47:59.864Z,37.17
2017-11-15T20:50:28.207Z,38.78
2017-11-15T20:52:55.807Z,33.13
2017-11-15T20:55:24.180Z,43.50
2017-11-15T20:57:51.790Z,41.92
2017-11-15T21:00:19.373Z,37.05
2017-11-15T21:02:50.014Z,42.97
2017-11-15T21:05:17.584Z,39.88
2017-11-15T21:07:45.174Z,44.05
2017-11-15T21:10:12.735Z,38.05
2017-11-15T21:12:40.343Z,42.90
2017-11-15T21:15:08.017Z,43.42
2017-11-15T21:17:35.583Z,40.67
2017-11-15T21:20:03.215Z,45.55
2017-11-15T21:22:30.780Z,43.83
2017-11-15T21:24:58.533Z,47.20
2017-11-15T21:27:26.150Z,44.58
2017-11-15T21:29:54.532Z,36.30
2017-11-15T21:32:22.876Z,33.60
2017-11-15T21:34:50.495Z,47.80
2017-11-15T21:37:18.313Z,40.83
2017-11-15T21:39:45.951Z,48.40
2017-11-15T21:42:14.458Z,39.85
2017-11-15T21:44:42.122Z,45.22
2017-11-15T21:47:09.722Z,48.35
2017-11-15T21:49:38.055Z,41.75
2017-11-15T21:52:05.615Z,49.33
2017-11-15T21:54:33.223Z,45.03
2017-11-15T21:57:01.552Z,47.55
2017-11-15T21:59:29.125Z,51.63
2017-11-15T22:01:56.746Z,46.42
2017-11-15T22:04:24.310Z,49.70
2017-11-15T22:06:51.937Z,46.70
2017-11-15T22:09:19.576Z,53.38
2017-11-15T22:11:47.143Z,64.10
2017-11-15T22:14:14.892Z,43.38
2017-11-15T22:16:42.450Z,50.20
2017-11-15T22:19:10.140Z,48.13
2017-11-15T22:21:38.506Z,47.97
2017-11-15T22:24:06.111Z,55.03
2017-11-15T22:26:33.675Z,51.88
2017-11-15T22:29:01.231Z,47.45
2017-11-15T22:31:28.826Z,49.47
2017-11-15T22:33:56.385Z,49.15
2017-11-15T22:36:23.980Z,47.10
2017-11-15T22:38:52.327Z,56.65
2017-11-15T22:41:19.927Z,43.92
2017-11-15T22:43:47.507Z,42.88
2017-11-15T22:46:15.126Z,52.13
2017-11-15T22:48:42.698Z,48.87
2017-11-15T22:51:11.067Z,48.15
2017-11-15T22:53:39.417Z,40.92
2017-11-15T22:56:07.034Z,48.25
2017-11-15T22:58:35.411Z,55.12
2017-11-15T23:01:03.729Z,55.33
2017-11-15T23:03:31.320Z,52.10
2017-11-15T23:05:58.936Z,47.25
2017-11-15T23:08:26.501Z,52.95
2017-11-15T23:10:54.062Z,50.85
2017-11-15T23:13:21.678Z,53.70
2017-11-15T23:15:49.251Z,52.25
2017-11-15T23:18:17.571Z,56.55
2017-11-15T23:20:45.939Z,54.08
2017-11-15T23:23:13.500Z,67.45
2017-11-15T23:25:41.092Z,59.25
2017-11-15T23:28:08.686Z,59.72
2017-11-15T23:30:37.024Z,59.33
2017-11-15T23:33:04.625Z,57.33
2017-11-15T23:35:32.951Z,47.40
2017-11-15T23:38:00.574Z,55.03
2017-11-15T23:40:28.894Z,57.40
2017-11-15T23:42:56.478Z,67.22
2017-11-15T23:45:24.087Z,60.40
2017-11-15T23:47:51.670Z,61.78
2017-11-15T23:50:19.993Z,65.47
2017-11-15T23:52:48.361Z,66.45
2017-11-15T23:55:15.941Z,54.67
2017-11-15T23:57:44.311Z,53.28
